Time;durP1;ratioP1;P1;durP2;ratioP2;P2;SDS_P1;SDS_P2;PMS_P1;PMS_P2;Temp;Humidity;BMP_temperature;BMP_pressure;BME280_temperature;BME280_humidity;BME280_pressure;Samples;Min_cycle;Max_cycle;Signal;HPM_P1;HPM_P2
2023/08/21 00:01:27;;;;;;;5.6;4.5;;;;;;;21;79.68164;943.8083;;;;
2023/08/21 00:03:54;;;;;;;5.5;4.6;;;;;;;20.99;79.54004;943.7494;;;;
2023/08/21 00:06:19;;;;;;;7.8;5.3;;;;;;;20.87;80.04492;943.7883;;;;
2023/08/21 00:08:46;;;;;;;6.5;5.1;;;;;;;20.88;79.98633;943.7542;;;;
2023/08/21 00:11:11;;;;;;;6.1;4.7;;;;;;;20.85;80.33203;943.7371;;;;
2023/08/21 00:13:38;;;;;;;6;4.8;;;;;;;20.86;80.20508;943.7814;;;;
2023/08/21 00:16:03;;;;;;;8.1;4.8;;;;;;;20.84;80.41406;943.717;;;;
2023/08/21 00:18:30;;;;;;;7;4.6;;;;;;;20.81;80.74707;943.7214;;;;
2023/08/21 00:20:54;;;;;;;4.8;4.2;;;;;;;20.77;80.79883;943.7319;;;;
2023/08/21 00:23:21;;;;;;;6.3;4.6;;;;;;;20.7;81.3584;943.7131;;;;
2023/08/21 00:25:46;;;;;;;7.4;4.6;;;;;;;20.65;81.42969;943.6584;;;;
2023/08/21 00:28:15;;;;;;;7.2;4.4;;;;;;;20.6;81.66504;943.6575;;;;
2023/08/21 00:30:40;;;;;;;9.1;4.5;;;;;;;20.56;81.91699;943.7141;;;;
2023/08/21 00:33:10;;;;;;;6.3;4.7;;;;;;;20.52;82.17773;943.6777;;;;
2023/08/21 00:35:38;;;;;;;8.6;5.1;;;;;;;20.6;81.39844;943.6567;;;;
2023/08/21 00:38:03;;;;;;;7.4;4.5;;;;;;;20.55;81.58691;943.6359;;;;
2023/08/21 00:40:32;;;;;;;5.7;4.8;;;;;;;20.53;81.71191;943.6841;;;;
2023/08/21 00:42:57;;;;;;;7.3;4.4;;;;;;;20.52;81.65234;943.6074;;;;
2023/08/21 00:45:26;;;;;;;6.1;4.7;;;;;;;20.45;81.99902;943.7399;;;;
2023/08/21 00:47:51;;;;;;;6.7;4.4;;;;;;;20.36;82.42969;943.6593;;;;
2023/08/21 00:50:20;;;;;;;8;4.7;;;;;;;20.45;81.70898;943.6184;;;;
2023/08/21 00:52:45;;;;;;;5.9;4.6;;;;;;;20.41;81.95898;943.589;;;;
2023/08/21 00:55:10;;;;;;;8.8;4.6;;;;;;;20.26;82.42285;943.6345;;;;
2023/08/21 00:57:36;;;;;;;7.5;5;;;;;;;20.06;83.63281;943.6397;;;;
2023/08/21 01:00:01;;;;;;;6.4;4.9;;;;;;;20.13;83.49219;943.5883;;;;
2023/08/21 01:02:27;;;;;;;5.3;4.1;;;;;;;20.19;83.18945;943.5717;;;;
2023/08/21 01:04:52;;;;;;;7;4.7;;;;;;;20.22;83.05469;943.6052;;;;
2023/08/21 01:07:17;;;;;;;5.7;4.6;;;;;;;20.1;83.68555;943.5404;;;;
2023/08/21 01:09:44;;;;;;;5.5;4.5;;;;;;;20.16;83.42969;943.5133;;;;
2023/08/21 01:12:09;;;;;;;6.2;4.7;;;;;;;20.08;83.91602;943.5617;;;;
2023/08/21 01:14:34;;;;;;;7.3;4.9;;;;;;;19.84;85.08398;943.6603;;;;
2023/08/21 01:16:59;;;;;;;5.2;4.3;;;;;;;19.95;84.42871;943.6559;;;;
2023/08/21 01:19:26;;;;;;;7.4;5;;;;;;;20;83.93555;943.55;;;;
2023/08/21 01:21:51;;;;;;;7;4.7;;;;;;;20.03;83.93066;943.5602;;;;
2023/08/21 01:24:19;;;;;;;5.3;4.6;;;;;;;20.06;83.67871;943.5742;;;;
2023/08/21 01:26:44;;;;;;;6.7;4.6;;;;;;;20.02;83.91699;943.5579;;;;
2023/08/21 01:29:09;;;;;;;7.1;4.9;;;;;;;20.01;83.68066;943.5425;;;;
2023/08/21 01:31:36;;;;;;;6.9;6.2;;;;;;;20.14;83.09961;943.5387;;;;
2023/08/21 01:34:00;;;;;;;7.6;5;;;;;;;20.17;82.65918;943.5843;;;;
2023/08/21 01:36:25;;;;;;;6.1;4.6;;;;;;;20.02;83.47363;943.5983;;;;
2023/08/21 01:38:50;;;;;;;5;4.5;;;;;;;20;83.63184;943.5208;;;;
2023/08/21 01:41:18;;;;;;;5.2;4.4;;;;;;;19.92;84.07324;943.608;;;;
2023/08/21 01:43:43;;;;;;;5.7;4.8;;;;;;;19.89;84.26465;943.623;;;;
2023/08/21 01:46:08;;;;;;;6.6;4.9;;;;;;;19.88;84.33301;943.5206;;;;
2023/08/21 01:48:33;;;;;;;7.6;4.9;;;;;;;19.88;84.40332;943.5134;;;;
2023/08/21 01:51:01;;;;;;;5.8;4.5;;;;;;;19.9;84.0918;943.5477;;;;
2023/08/21 01:53:26;;;;;;;7.6;4.9;;;;;;;19.91;84;943.6323;;;;
2023/08/21 01:55:52;;;;;;;5.6;4.7;;;;;;;19.87;84.40332;943.5659;;;;
2023/08/21 01:58:17;;;;;;;9.5;4.7;;;;;;;19.91;84.16309;943.6211;;;;
2023/08/21 02:00:45;;;;;;;6.9;4.5;;;;;;;19.75;84.49512;943.6292;;;;
2023/08/21 02:03:10;;;;;;;6.3;4.7;;;;;;;19.68;85.09961;943.6111;;;;
2023/08/21 02:05:35;;;;;;;8.5;5.2;;;;;;;19.72;85.04785;943.6339;;;;
2023/08/21 02:08:00;;;;;;;6.7;4.8;;;;;;;19.72;85.07324;943.6047;;;;
2023/08/21 02:10:28;;;;;;;6.9;4.9;;;;;;;19.77;84.73047;943.6008;;;;
2023/08/21 02:12:54;;;;;;;6.3;4.8;;;;;;;19.8;84.24902;943.6106;;;;
2023/08/21 02:15:21;;;;;;;6.8;5;;;;;;;19.8;84.17773;943.639;;;;
2023/08/21 02:17:45;;;;;;;5.6;4.4;;;;;;;19.8;84.00293;943.5953;;;;
2023/08/21 02:20:16;;;;;;;7.7;4.5;;;;;;;19.88;83.70313;943.5974;;;;
2023/08/21 02:24:17;;;;;;;5.5;4.7;;;;;;;19.91;83.27637;943.5726;;;;
2023/08/21 02:26:36;;;;;;;4.8;4;;;;;;;19.78;83.89453;943.6071;;;;
2023/08/21 02:29:03;;;;;;;6.3;4.6;;;;;;;19.74;84.00195;943.6044;;;;
2023/08/21 02:31:28;;;;;;;7.3;4.9;;;;;;;19.45;85.38281;943.6053;;;;
2023/08/21 02:33:53;;;;;;;7.2;4.6;;;;;;;;;;;;;
2023/08/21 02:36:18;;;;;;;5.2;4.4;;;;;;;;;;;;;
2023/08/21 02:38:43;;;;;;;7.2;5.2;;;;;;;;;;;;;
2023/08/21 02:41:09;;;;;;;18.3;11.6;;;;;;;;;;;;;
2023/08/21 02:43:34;;;;;;;137.2;73.1;;;;;;;;;;;;;
2023/08/21 02:45:59;;;;;;;22.5;13.3;;;;;;;;;;;;;
2023/08/21 02:48:24;;;;;;;9.2;5.6;;;;;;;;;;;;;
2023/08/21 02:50:50;;;;;;;8;5.3;;;;;;;;;;;;;
2023/08/21 02:53:15;;;;;;;8.7;4.9;;;;;;;;;;;;;
2023/08/21 02:55:41;;;;;;;8.5;4.3;;;;;;;;;;;;;
2023/08/21 02:58:06;;;;;;;7.5;4.6;;;;;;;;;;;;;
2023/08/21 03:00:31;;;;;;;6.8;4.9;;;;;;;;;;;;;
2023/08/21 03:02:56;;;;;;;7.9;5.3;;;;;;;;;;;;;
2023/08/21 03:05:22;;;;;;;6.8;4.8;;;;;;;;;;;;;
2023/08/21 03:07:47;;;;;;;6.9;4.7;;;;;;;;;;;;;
2023/08/21 03:10:14;;;;;;;6.2;4.6;;;;;;;;;;;;;
2023/08/21 03:12:39;;;;;;;6;4.8;;;;;;;;;;;;;
2023/08/21 03:15:04;;;;;;;7;4.9;;;;;;;;;;;;;
2023/08/21 03:17:29;;;;;;;8;4.9;;;;;;;;;;;;;
2023/08/21 03:19:56;;;;;;;9.8;4.6;;;;;;;;;;;;;
2023/08/21 03:22:21;;;;;;;10.1;4.7;;;;;;;;;;;;;
2023/08/21 03:24:46;;;;;;;5.3;4.5;;;;;;;;;;;;;
2023/08/21 03:27:11;;;;;;;7.9;4.7;;;;;;;;;;;;;
2023/08/21 03:29:37;;;;;;;14.3;5;;;;;;;;;;;;;
2023/08/21 03:32:02;;;;;;;5.5;4.2;;;;;;;;;;;;;
2023/08/21 03:34:28;;;;;;;8.7;4.8;;;;;;;;;;;;;
2023/08/21 03:36:53;;;;;;;5.8;4.1;;;;;;;;;;;;;
2023/08/21 03:39:18;;;;;;;6.2;4.3;;;;;;;;;;;;;
2023/08/21 03:41:43;;;;;;;6.7;4.8;;;;;;;;;;;;;
2023/08/21 03:44:08;;;;;;;5.9;4.5;;;;;;;;;;;;;
2023/08/21 03:46:33;;;;;;;8.5;4.6;;;;;;;;;;;;;
2023/08/21 03:48:59;;;;;;;6.3;4.5;;;;;;;;;;;;;
2023/08/21 03:51:26;;;;;;;7;4.5;;;;;;;;;;;;;
2023/08/21 03:53:51;;;;;;;6.8;4.8;;;;;;;;;;;;;
2023/08/21 03:56:16;;;;;;;4.7;4.3;;;;;;;;;;;;;
2023/08/21 03:58:41;;;;;;;5.8;4.8;;;;;;;;;;;;;
2023/08/21 04:02:32;;;;;;;5.8;4.5;;;;;;;19.26;83.30762;943.7769;;;;
2023/08/21 04:05:01;;;;;;;5;4;;;;;;;19.38;82.33789;943.78;;;;
2023/08/21 04:07:26;;;;;;;5.4;4;;;;;;;19.45;81.78125;943.8203;;;;
2023/08/21 04:09:52;;;;;;;5.8;4.1;;;;;;;19.51;81.20898;943.7975;;;;
2023/08/21 04:12:26;;;;;;;6.7;4.6;;;;;;;19.41;82.75;943.7601;;;;
2023/08/21 04:14:56;;;;;;;7.3;4.9;;;;;;;19.06;85.49219;943.7313;;;;
2023/08/21 04:17:21;;;;;;;5.8;4.8;;;;;;;18.78;87.48535;943.753;;;;
2023/08/21 04:19:51;;;;;;;8.6;5.5;;;;;;;18.66;88.25293;943.7997;;;;
2023/08/21 04:22:16;;;;;;;9.2;5.4;;;;;;;18.74;87.83887;943.7317;;;;
2023/08/21 04:24:47;;;;;;;6.2;5;;;;;;;18.57;88.68848;943.8027;;;;
2023/08/21 04:27:15;;;;;;;8.2;5.4;;;;;;;18.66;88.49707;943.795;;;;
2023/08/21 04:29:40;;;;;;;7.9;5.5;;;;;;;18.79;87.40527;943.7981;;;;
2023/08/21 04:32:09;;;;;;;6.9;4.8;;;;;;;18.89;86.86719;943.8237;;;;
2023/08/21 04:34:34;;;;;;;8.2;4.7;;;;;;;18.86;87.11719;943.8233;;;;
2023/08/21 04:37:02;;;;;;;6.7;5;;;;;;;18.81;87.3877;943.7961;;;;
2023/08/21 04:39:27;;;;;;;6.3;4.8;;;;;;;18.84;87.26563;943.8438;;;;
2023/08/21 04:41:55;;;;;;;7.2;4.9;;;;;;;18.82;87.38965;943.7673;;;;
2023/08/21 04:45:39;;;;;;;7;5;;;;;;;18.9;87.1709;943.8558;;;;
2023/08/21 04:48:04;;;;;;;6.9;5.3;;;;;;;18.89;87.23926;943.8987;;;;
2023/08/21 04:50:29;;;;;;;7.4;5.1;;;;;;;18.93;86.86426;943.8723;;;;
2023/08/21 04:52:58;;;;;;;7.1;5.4;;;;;;;18.95;86.97266;943.9633;;;;
2023/08/21 04:55:23;;;;;;;7.3;5.3;;;;;;;18.88;87.40039;943.9594;;;;
2023/08/21 04:57:48;;;;;;;6.5;5.1;;;;;;;18.86;87.81543;943.9774;;;;
2023/08/21 05:00:15;;;;;;;9.6;5.1;;;;;;;18.84;87.59082;944.0059;;;;
2023/08/21 05:02:39;;;;;;;6.6;5.2;;;;;;;18.85;87.81348;944.0356;;;;
2023/08/21 05:05:06;;;;;;;7.2;5.3;;;;;;;18.94;87.40137;944.0659;;;;
2023/08/21 05:07:30;;;;;;;7.6;4.7;;;;;;;18.94;87.4707;944.0804;;;;
2023/08/21 05:09:55;;;;;;;5.6;5;;;;;;;19.02;87.03125;944.1214;;;;
2023/08/21 05:12:22;;;;;;;6.7;4.8;;;;;;;19.06;86.81934;944.1002;;;;
2023/08/21 05:14:48;;;;;;;7.3;4.7;;;;;;;19.14;86.47363;944.1191;;;;
2023/08/21 05:17:15;;;;;;;7.5;4.8;;;;;;;19.16;86.4082;944.1463;;;;
2023/08/21 05:19:40;;;;;;;7.1;5.3;;;;;;;19.19;86.1582;944.1305;;;;
2023/08/21 05:22:05;;;;;;;7.7;5.2;;;;;;;19.23;85.64355;944.0842;;;;
2023/08/21 05:24:31;;;;;;;8.9;4.9;;;;;;;19.24;85.67969;944.1559;;;;
2023/08/21 05:26:58;;;;;;;9.6;5.1;;;;;;;19.27;85.7666;944.1481;;;;
2023/08/21 05:29:23;;;;;;;6.1;4.7;;;;;;;19.31;85.64551;944.1451;;;;
2023/08/21 05:31:50;;;;;;;7.3;4.8;;;;;;;19.37;85.68164;944.1475;;;;
2023/08/21 05:34:15;;;;;;;5.9;4.8;;;;;;;19.44;85.83496;944.1411;;;;
2023/08/21 05:36:43;;;;;;;9;5.4;;;;;;;19.92;85.64844;944.0858;;;;
2023/08/21 05:39:08;;;;;;;6.2;4.7;;;;;;;21;80.23145;944.0804;;;;
2023/08/21 05:41:33;;;;;;;5.4;3.9;;;;;;;22.39;73.42188;944.0673;;;;
2023/08/21 05:43:58;;;;;;;5.6;3.9;;;;;;;23.48;68.00488;944.0961;;;;
2023/08/21 05:46:23;;;;;;;5.4;4;;;;;;;24.34;64.47168;944.0949;;;;
2023/08/21 05:48:48;;;;;;;8.4;4.5;;;;;;;25.35;61.21582;944.0712;;;;
2023/08/21 05:51:14;;;;;;;10;4.4;;;;;;;25.95;58.11719;944.0862;;;;
2023/08/21 05:53:39;;;;;;;7;4.7;;;;;;;26.62;55.80176;944.1428;;;;
2023/08/21 05:56:06;;;;;;;8.7;4.6;;;;;;;27.1;53.25195;944.0641;;;;
2023/08/21 05:58:32;;;;;;;9.4;4.6;;;;;;;27.78;52.56152;944.0847;;;;
2023/08/21 06:00:58;;;;;;;8.6;4.3;;;;;;;28.41;49.9248;944.1261;;;;
2023/08/21 06:03:23;;;;;;;5.8;3.7;;;;;;;27.85;50.9668;944.1364;;;;
2023/08/21 06:05:52;;;;;;;5.9;3.8;;;;;;;27.35;51.8584;944.1118;;;;
2023/08/21 06:08:18;;;;;;;9.5;5.8;;;;;;;26.87;53.48535;944.1275;;;;
2023/08/21 06:10:42;;;;;;;6;4;;;;;;;26.74;53.74219;944.1578;;;;
2023/08/21 06:13:11;;;;;;;4.7;4;;;;;;;27.44;52.54492;944.1487;;;;
2023/08/21 06:15:36;;;;;;;5.4;3.6;;;;;;;29.05;49.50684;944.095;;;;
2023/08/21 06:18:06;;;;;;;4.8;3.5;;;;;;;30.15;45.1875;944.1225;;;;
2023/08/21 06:20:37;;;;;;;3.9;3.4;;;;;;;30.62;44.61328;944.0996;;;;
2023/08/21 06:23:02;;;;;;;3.7;3.1;;;;;;;29.42;46.50879;944.0817;;;;
2023/08/21 06:25:31;;;;;;;4.4;3.2;;;;;;;28.72;47.9834;944.1379;;;;
2023/08/21 06:28:10;;;;;;;5.4;3.4;;;;;;;29.89;44.37402;944.1278;;;;
2023/08/21 06:30:39;;;;;;;4.4;3;;;;;;;31.21;43.61914;944.1531;;;;
2023/08/21 06:33:04;;;;;;;4.1;3.5;;;;;;;31.07;42.82715;944.1234;;;;
2023/08/21 06:35:32;;;;;;;5.8;3.5;;;;;;;31.25;43.21484;944.1842;;;;
2023/08/21 06:37:58;;;;;;;5.3;3.6;;;;;;;29.94;43.6875;944.1401;;;;
2023/08/21 06:40:22;;;;;;;4.1;3;;;;;;;30.87;43.47852;944.1437;;;;
2023/08/21 06:42:50;;;;;;;5.5;3.5;;;;;;;31.89;42.45117;944.1039;;;;
2023/08/21 06:45:14;;;;;;;4.7;3.6;;;;;;;32.16;41.67188;944.111;;;;
2023/08/21 06:47:40;;;;;;;5.8;3.3;;;;;;;33.31;39.66211;944.085;;;;
2023/08/21 06:50:05;;;;;;;3.3;2.8;;;;;;;32.95;39.30664;944.1128;;;;
2023/08/21 06:52:33;;;;;;;4.4;2.9;;;;;;;34.32;38.61816;944.1512;;;;
2023/08/21 06:54:58;;;;;;;4.4;3.2;;;;;;;33.95;36.25195;944.1449;;;;
2023/08/21 06:57:23;;;;;;;3.9;3.3;;;;;;;34.58;37.29004;944.1788;;;;
2023/08/21 06:59:48;;;;;;;4.2;3.1;;;;;;;34.47;36.77539;944.1844;;;;
2023/08/21 07:02:17;;;;;;;3.8;3.4;;;;;;;34.62;37.96777;944.1359;;;;
2023/08/21 07:04:42;;;;;;;4.6;3.5;;;;;;;34.94;36.89648;944.1508;;;;
2023/08/21 07:07:09;;;;;;;3.8;3.1;;;;;;;34.77;35.76172;944.1515;;;;
2023/08/21 07:09:35;;;;;;;4.7;3.5;;;;;;;33.97;36.78223;944.0972;;;;
2023/08/21 07:12:01;;;;;;;4.4;3.4;;;;;;;35.55;34.38574;944.1144;;;;
2023/08/21 07:14:26;;;;;;;6.6;3.5;;;;;;;34.71;35.08203;944.1253;;;;
2023/08/21 07:16:54;;;;;;;13.1;7.5;;;;;;;33.97;36.48242;944.0919;;;;
2023/08/21 07:19:19;;;;;;;19.8;11.9;;;;;;;35.37;35.07227;944.1077;;;;
2023/08/21 07:21:45;;;;;;;6.4;4.8;;;;;;;36.61;33.44922;944.1202;;;;
2023/08/21 07:24:10;;;;;;;5.4;4;;;;;;;37.12;34.09277;944.1021;;;;
2023/08/21 07:26:36;;;;;;;3.8;3.2;;;;;;;36.49;33.10156;944.1211;;;;
2023/08/21 07:29:01;;;;;;;3.8;3.5;;;;;;;35.96;33.35352;944.0739;;;;
2023/08/21 07:31:32;;;;;;;4.8;3.1;;;;;;;35.36;34.75781;944.0863;;;;
2023/08/21 07:34:00;;;;;;;4.5;3.2;;;;;;;36.08;34.09961;944.09;;;;
2023/08/21 07:36:25;;;;;;;4.1;3.3;;;;;;;36.61;33.82422;944.113;;;;
2023/08/21 07:38:50;;;;;;;4.4;3.3;;;;;;;33.44;38.71191;944.0485;;;;
2023/08/21 07:41:18;;;;;;;4.7;3.4;;;;;;;32.13;41.57324;944.0444;;;;
2023/08/21 07:43:43;;;;;;;4.7;3.6;;;;;;;31.83;41.38965;944.0285;;;;
2023/08/21 07:46:13;;;;;;;5.1;3.4;;;;;;;31.88;42.88086;944.0565;;;;
2023/08/21 07:48:35;;;;;;;4.9;3.3;;;;;;;32.93;40.30176;944.0419;;;;
2023/08/21 07:51:02;;;;;;;3.9;3.5;;;;;;;32.47;40.48828;944.0399;;;;
2023/08/21 07:53:27;;;;;;;5;3;;;;;;;32.63;40.26367;943.9975;;;;
2023/08/21 07:55:54;;;;;;;6.1;3.3;;;;;;;31.83;41.07813;943.9982;;;;
2023/08/21 07:58:19;;;;;;;4.2;3.3;;;;;;;32.45;39.85059;943.9839;;;;
2023/08/21 08:00:51;;;;;;;4.1;3.2;;;;;;;34.71;37.80664;944.0624;;;;
2023/08/21 08:08:23;;;;;;;7.7;3.4;;;;;;;38.05;31.9502;944.0699;;;;
2023/08/21 08:10:50;;;;;;;6.1;3.8;;;;;;;35.94;34.40332;944.0075;;;;
2023/08/21 08:13:15;;;;;;;4.2;3.3;;;;;;;36.59;33.89453;944.0637;;;;
2023/08/21 08:15:45;;;;;;;4.3;3.3;;;;;;;37.78;32.19922;944.1001;;;;
2023/08/21 08:18:13;;;;;;;4.2;3.8;;;;;;;33.93;36.20117;944.0615;;;;
2023/08/21 08:20:38;;;;;;;6.4;3.6;;;;;;;35.58;34.54492;944.0322;;;;
2023/08/21 08:23:08;;;;;;;5.1;3.6;;;;;;;35.93;35.4541;944.0233;;;;
2023/08/21 08:25:36;;;;;;;3.7;3.4;;;;;;;36.26;34.24609;944.0281;;;;
2023/08/21 08:28:01;;;;;;;3.9;3.4;;;;;;;35.72;35.49805;944.0874;;;;
2023/08/21 08:30:32;;;;;;;4.4;3.7;;;;;;;36.16;34.74609;944.0578;;;;
2023/08/21 08:32:57;;;;;;;4.5;3.4;;;;;;;37;33.76758;944.0419;;;;
2023/08/21 08:35:27;;;;;;;6;3.6;;;;;;;37.5;34.29004;944.0265;;;;
2023/08/21 08:37:52;;;;;;;5;3.6;;;;;;;38.06;31.50195;944.0345;;;;
2023/08/21 08:40:22;;;;;;;4.5;3.5;;;;;;;37.34;32.58105;944.0616;;;;
2023/08/21 08:42:47;;;;;;;4.2;3.8;;;;;;;37.91;31.81934;944.0441;;;;
2023/08/21 08:45:17;;;;;;;3.9;3.5;;;;;;;37.16;32.62891;944.0188;;;;
2023/08/21 08:47:45;;;;;;;4.9;3.9;;;;;;;37.98;33.71875;944.0316;;;;
2023/08/21 08:50:10;;;;;;;4.3;3.7;;;;;;;37.45;36.21484;944.0742;;;;
2023/08/21 08:52:37;;;;;;;4.7;3.8;;;;;;;37.46;33.68066;943.9752;;;;
2023/08/21 08:55:02;;;;;;;4.1;3.8;;;;;;;37.33;33.6709;944.0425;;;;
2023/08/21 08:57:29;;;;;;;5.5;3.9;;;;;;;36.65;34.43164;944.0256;;;;
2023/08/21 08:59:54;;;;;;;5.6;4.2;;;;;;;36.33;35.6543;944.0198;;;;
2023/08/21 09:02:20;;;;;;;4.7;4.2;;;;;;;35.63;36.83203;943.9979;;;;
2023/08/21 09:04:46;;;;;;;4.6;3.6;;;;;;;36.02;36.61035;943.9449;;;;
2023/08/21 09:07:12;;;;;;;4.2;3.8;;;;;;;35.87;36.91113;943.9684;;;;
2023/08/21 09:09:37;;;;;;;4.3;3.9;;;;;;;35.23;37.42773;944.0328;;;;
2023/08/21 09:12:05;;;;;;;4.8;3.5;;;;;;;34.73;34.13184;943.9423;;;;
2023/08/21 09:14:30;;;;;;;4.3;3.6;;;;;;;34.17;36.48633;943.8946;;;;
2023/08/21 09:16:57;;;;;;;4.5;3.7;;;;;;;33.78;39.66699;943.9008;;;;
2023/08/21 09:19:24;;;;;;;4.6;3.6;;;;;;;33.53;41.3291;943.8576;;;;
2023/08/21 09:21:50;;;;;;;4.5;3.4;;;;;;;33.13;39.37012;943.8538;;;;
2023/08/21 09:24:15;;;;;;;3.9;3.3;;;;;;;33.08;39.75;943.8204;;;;
2023/08/21 09:26:46;;;;;;;4.1;3.5;;;;;;;32.48;39.77051;943.8;;;;
2023/08/21 09:29:17;;;;;;;4.9;3.8;;;;;;;32.19;43.89258;943.8403;;;;
2023/08/21 09:31:45;;;;;;;5.5;3.5;;;;;;;31.99;44.84277;943.8284;;;;
2023/08/21 09:34:09;;;;;;;6;4;;;;;;;31.92;42.42969;943.7569;;;;
2023/08/21 09:36:35;;;;;;;4.6;4;;;;;;;31.96;45.18848;943.7938;;;;
2023/08/21 09:39:00;;;;;;;3.8;3.2;;;;;;;32.35;43.38184;943.7159;;;;
2023/08/21 09:41:25;;;;;;;5.2;3.7;;;;;;;32.37;43.80176;943.7354;;;;
2023/08/21 09:43:52;;;;;;;6.9;3.8;;;;;;;32.18;45.61914;943.6775;;;;
2023/08/21 09:46:18;;;;;;;6.2;3.7;;;;;;;31.98;42.61426;943.6359;;;;
2023/08/21 09:48:44;;;;;;;4.1;3.5;;;;;;;31.62;47.16602;943.6479;;;;
2023/08/21 09:51:09;;;;;;;3.9;3.5;;;;;;;31.51;44.3418;943.6492;;;;
2023/08/21 09:53:36;;;;;;;4.7;3.6;;;;;;;31.43;42.32324;943.5609;;;;
2023/08/21 09:56:03;;;;;;;6.4;4;;;;;;;31.72;45.39258;943.5804;;;;
2023/08/21 09:58:26;;;;;;;5.8;3.8;;;;;;;32.2;44.06152;943.5528;;;;
2023/08/21 10:00:52;;;;;;;7.8;3.7;;;;;;;32.33;43.34277;943.5264;;;;
2023/08/21 10:03:27;;;;;;;4.2;3.6;;;;;;;32.75;43.52637;943.5154;;;;
2023/08/21 10:05:52;;;;;;;4.3;3.3;;;;;;;33.37;40.29297;943.4031;;;;
2023/08/21 10:08:17;;;;;;;4.6;3.5;;;;;;;33.37;42.50391;943.4108;;;;
2023/08/21 10:10:43;;;;;;;4.1;3.4;;;;;;;33.18;42.65527;943.3575;;;;
2023/08/21 10:13:07;;;;;;;5.8;4.2;;;;;;;33.52;43.56348;943.3614;;;;
2023/08/21 10:15:37;;;;;;;4.5;4;;;;;;;33.05;44.22852;943.3669;;;;
2023/08/21 10:18:02;;;;;;;4.6;3.5;;;;;;;32.94;44.06152;943.3191;;;;
2023/08/21 10:20:28;;;;;;;5;3.9;;;;;;;33.8;40.11426;943.2781;;;;
2023/08/21 10:22:53;;;;;;;3.9;3.2;;;;;;;33.3;44.37305;943.2831;;;;
2023/08/21 10:25:20;;;;;;;4.4;3.7;;;;;;;33.52;42.66309;943.2751;;;;
2023/08/21 10:27:43;;;;;;;4.6;4;;;;;;;33.34;46.02344;943.2573;;;;
2023/08/21 10:30:54;;;;;;;6.2;3.8;;;;;;;33.24;43.37012;943.2198;;;;
2023/08/21 10:33:19;;;;;;;4.3;3.8;;;;;;;33.36;45.2793;943.243;;;;
2023/08/21 10:35:44;;;;;;;5.9;3.9;;;;;;;33.3;46.2832;943.2256;;;;
2023/08/21 10:38:09;;;;;;;8.8;4.3;;;;;;;32.59;46.58398;943.2089;;;;
2023/08/21 10:40:35;;;;;;;5.2;3.9;;;;;;;32.92;46.48633;943.259;;;;
2023/08/21 10:43:01;;;;;;;6.5;3.8;;;;;;;33.17;47.58008;943.1931;;;;
2023/08/21 10:45:26;;;;;;;7;4.1;;;;;;;33.13;47.13086;943.1822;;;;
2023/08/21 10:47:51;;;;;;;5.3;3.9;;;;;;;34.1;43.70313;943.1926;;;;
2023/08/21 10:50:26;;;;;;;4.3;3.9;;;;;;;34.61;41.23438;943.1633;;;;
2023/08/21 10:52:45;;;;;;;5.1;3.9;;;;;;;34.06;44.75977;943.2072;;;;
2023/08/21 10:55:10;;;;;;;4.4;3.4;;;;;;;35.51;39.87793;943.1841;;;;
2023/08/21 10:57:37;;;;;;;6.2;3.8;;;;;;;36.58;39.8623;943.1505;;;;
2023/08/21 11:00:03;;;;;;;6.9;3.9;;;;;;;37.85;35.44434;943.1675;;;;
2023/08/21 11:02:30;;;;;;;6.2;3.8;;;;;;;38.29;35.28418;943.2278;;;;
2023/08/21 11:04:55;;;;;;;5.7;3.9;;;;;;;39.5;33.17188;943.1666;;;;
2023/08/21 11:07:21;;;;;;;5.9;3.8;;;;;;;40.07;33.67578;943.1588;;;;
2023/08/21 11:09:46;;;;;;;4.4;3.7;;;;;;;40.68;32.97559;943.1584;;;;
2023/08/21 11:12:11;;;;;;;4.8;3.9;;;;;;;39.15;35.71484;943.1616;;;;
2023/08/21 11:14:39;;;;;;;5;3.8;;;;;;;39.45;35.1416;943.1613;;;;
2023/08/21 11:17:04;;;;;;;5.7;4;;;;;;;40.43;33.27637;943.1287;;;;
2023/08/21 11:19:33;;;;;;;5;3.9;;;;;;;40.85;31.52148;943.1271;;;;
2023/08/21 11:22:00;;;;;;;4.2;3.8;;;;;;;40.56;32.52832;943.1312;;;;
2023/08/21 11:24:35;;;;;;;4;3.6;;;;;;;40.68;32.45117;943.1373;;;;
2023/08/21 11:27:00;;;;;;;5.2;3.9;;;;;;;40.62;32.61816;943.0603;;;;
2023/08/21 11:32:49;;;;;;;7.3;4;;;;;;;38.17;37.83887;943.0272;;;;
2023/08/21 11:35:19;;;;;;;5;4;;;;;;;38.79;37.40234;943.0469;;;;
2023/08/21 11:37:46;;;;;;;4.8;4.2;;;;;;;39.33;35.63184;943.0531;;;;
2023/08/21 11:40:10;;;;;;;5.6;4.2;;;;;;;38.65;36.55273;943.0508;;;;
2023/08/21 11:42:37;;;;;;;4.5;4.1;;;;;;;38.24;37.2002;943.0602;;;;
2023/08/21 11:45:02;;;;;;;7.9;4.4;;;;;;;37.84;36.5127;943.0136;;;;
2023/08/21 11:47:43;;;;;;;6.2;4.6;;;;;;;36.81;38.17383;943.0435;;;;
2023/08/21 11:50:08;;;;;;;6.1;3.8;;;;;;;36.11;41.58691;943.0641;;;;
2023/08/21 11:52:35;;;;;;;6.5;4.1;;;;;;;35.91;42.10059;943.0543;;;;
2023/08/21 11:54:59;;;;;;;4.4;4;;;;;;;35.9;40.86719;942.9811;;;;
2023/08/21 11:57:27;;;;;;;5.1;4.2;;;;;;;35.41;42.2002;942.9772;;;;
2023/08/21 11:59:52;;;;;;;6.5;4;;;;;;;34.8;42.26465;943.0358;;;;
2023/08/21 12:02:18;;;;;;;5.9;4.3;;;;;;;34.42;42.81934;943.0144;;;;
2023/08/21 12:04:44;;;;;;;6.4;3.9;;;;;;;33.97;44.95508;942.9042;;;;
2023/08/21 12:07:10;;;;;;;10;4.3;;;;;;;33.97;43.46289;942.9013;;;;
2023/08/21 12:09:35;;;;;;;6.3;4;;;;;;;33.97;44.24512;942.9572;;;;
2023/08/21 12:12:05;;;;;;;4.8;4;;;;;;;33.2;46.34668;942.9515;;;;
2023/08/21 12:14:30;;;;;;;4;3.6;;;;;;;33.52;45.30762;942.9336;;;;
2023/08/21 12:16:57;;;;;;;4.3;3.9;;;;;;;33.36;47.38379;942.9041;;;;
2023/08/21 12:19:23;;;;;;;4.2;3.8;;;;;;;33.59;45.95215;942.8854;;;;
2023/08/21 12:21:49;;;;;;;4.7;4;;;;;;;33.66;44.34766;942.9235;;;;
2023/08/21 12:24:14;;;;;;;6;4.4;;;;;;;33.76;44.30957;942.9192;;;;
2023/08/21 12:26:44;;;;;;;5;3.9;;;;;;;33.84;44.91895;942.9095;;;;
2023/08/21 12:29:09;;;;;;;4.5;4.1;;;;;;;33.72;44.17285;942.8633;;;;
2023/08/21 12:31:36;;;;;;;4.9;3.7;;;;;;;33.82;44.23047;942.8615;;;;
2023/08/21 12:34:01;;;;;;;4.8;4.3;;;;;;;33.7;44.24414;942.8196;;;;
2023/08/21 12:36:27;;;;;;;5.7;4.3;;;;;;;33.77;44.39453;942.8127;;;;
2023/08/21 12:38:52;;;;;;;5.2;4.2;;;;;;;33.47;47.11719;942.7269;;;;
2023/08/21 12:41:17;;;;;;;5.8;4.3;;;;;;;33.51;45.01855;942.7556;;;;
2023/08/21 12:43:44;;;;;;;4.7;4.2;;;;;;;33.38;45.33008;942.6942;;;;
2023/08/21 12:46:09;;;;;;;6.7;4.4;;;;;;;33.48;44.7627;942.7195;;;;
2023/08/21 12:48:34;;;;;;;5.2;4.3;;;;;;;33.6;46.14648;942.7112;;;;
2023/08/21 12:51:02;;;;;;;4.6;4.1;;;;;;;33.55;44.14453;942.6908;;;;
2023/08/21 12:53:27;;;;;;;5;4.3;;;;;;;33.5;48.54004;942.7114;;;;
2023/08/21 12:55:53;;;;;;;7.6;4.4;;;;;;;33.27;46.75;942.7394;;;;
2023/08/21 12:58:18;;;;;;;5.2;4.3;;;;;;;33.1;44.54492;942.658;;;;
2023/08/21 13:00:44;;;;;;;6.9;4;;;;;;;33.23;44.8584;942.6323;;;;
2023/08/21 13:03:10;;;;;;;5.4;3.8;;;;;;;33;45.49609;942.6364;;;;
2023/08/21 13:05:35;;;;;;;5.7;4.1;;;;;;;33.13;44.36816;942.5631;;;;
2023/08/21 13:08:00;;;;;;;6.1;3.9;;;;;;;33.33;45.49316;942.5196;;;;
2023/08/21 13:10:28;;;;;;;7;4;;;;;;;33.02;46.85547;942.5775;;;;
2023/08/21 13:12:53;;;;;;;5.2;4;;;;;;;33.1;47.04395;942.5901;;;;
2023/08/21 13:15:21;;;;;;;5.9;4;;;;;;;32.74;48.2793;942.5489;;;;
2023/08/21 13:17:46;;;;;;;8;4;;;;;;;32.79;46.1123;942.5756;;;;
2023/08/21 13:20:19;;;;;;;5.3;4.2;;;;;;;32.86;44.20996;942.5449;;;;
2023/08/21 13:22:46;;;;;;;4.9;3.9;;;;;;;32.88;45.54492;942.5919;;;;
2023/08/21 13:25:11;;;;;;;6.1;4;;;;;;;32.74;44.31836;942.5617;;;;
2023/08/21 13:27:40;;;;;;;5.6;3.5;;;;;;;32.79;44.10742;942.5905;;;;
2023/08/21 13:30:05;;;;;;;5.1;3.9;;;;;;;32.69;44.50586;942.6428;;;;
2023/08/21 13:32:33;;;;;;;8.4;3.9;;;;;;;32.89;43.16797;942.5872;;;;
2023/08/21 13:34:59;;;;;;;4.4;3.7;;;;;;;32.97;42.31152;942.5593;;;;
2023/08/21 13:37:28;;;;;;;6.4;3.9;;;;;;;32.9;41.95605;942.4874;;;;
2023/08/21 13:40:09;;;;;;;4.6;3.8;;;;;;;32.73;43.48828;942.4836;;;;
2023/08/21 13:42:34;;;;;;;7.9;3.8;;;;;;;32.85;44.06445;942.5142;;;;
2023/08/21 13:44:55;;;;;;;4.2;3.3;;;;;;;32.98;42.94727;942.4572;;;;
2023/08/21 13:47:23;;;;;;;5.3;3.7;;;;;;;33.04;43.51855;942.5093;;;;
2023/08/21 13:49:48;;;;;;;6.2;4;;;;;;;32.97;44.04102;942.4596;;;;
2023/08/21 13:52:13;;;;;;;5.5;3.8;;;;;;;33.08;44.01367;942.4694;;;;
2023/08/21 13:54:38;;;;;;;5.9;3.5;;;;;;;32.75;44.52246;942.4472;;;;
2023/08/21 13:57:04;;;;;;;8;3.9;;;;;;;32.55;45.04297;942.4156;;;;
2023/08/21 14:01:55;;;;;;;5;4.1;;;;;;;32.2;47.26367;942.4239;;;;
2023/08/21 14:04:20;;;;;;;6.5;4.2;;;;;;;32.14;46.18945;942.3889;;;;
2023/08/21 14:06:48;;;;;;;5.2;3.7;;;;;;;31.97;46.19629;942.4164;;;;
2023/08/21 14:09:13;;;;;;;5.9;4.6;;;;;;;32.09;46.42383;942.3502;;;;
2023/08/21 14:11:43;;;;;;;4.6;3.9;;;;;;;32.28;46.32324;942.3932;;;;
2023/08/21 14:14:12;;;;;;;5.5;4;;;;;;;32.41;45.78516;942.3491;;;;
2023/08/21 14:19:17;;;;;;;5.7;4;;;;;;;32.35;44.61621;942.3817;;;;
2023/08/21 14:21:47;;;;;;;5;3.6;;;;;;;32.56;45.40527;942.3275;;;;
2023/08/21 14:24:12;;;;;;;6.7;3.8;;;;;;;32.53;45.44922;942.3923;;;;
2023/08/21 14:26:39;;;;;;;5.3;3.8;;;;;;;32.59;45.68359;942.3683;;;;
2023/08/21 14:29:03;;;;;;;4.8;4;;;;;;;32.62;44.72656;942.4113;;;;
2023/08/21 14:31:30;;;;;;;4.4;4;;;;;;;32.67;44.01172;942.4097;;;;
2023/08/21 14:33:55;;;;;;;5.6;3.8;;;;;;;32.61;44.81055;942.351;;;;
2023/08/21 14:36:21;;;;;;;4.3;3.9;;;;;;;32.62;45.30273;942.3925;;;;
2023/08/21 14:38:46;;;;;;;5.2;3.8;;;;;;;32.47;45.10742;942.4114;;;;
2023/08/21 14:41:12;;;;;;;7.4;3.8;;;;;;;32.3;45.66602;942.3644;;;;
2023/08/21 14:43:37;;;;;;;4.6;3.7;;;;;;;32.17;45.71191;942.335;;;;
2023/08/21 14:46:04;;;;;;;6.1;3.9;;;;;;;32.14;45.50586;942.3322;;;;
2023/08/21 14:48:29;;;;;;;5.9;3.9;;;;;;;32.15;45.36328;942.3047;;;;
2023/08/21 14:50:56;;;;;;;5.9;3.8;;;;;;;32.24;45.73242;942.3005;;;;
2023/08/21 14:53:21;;;;;;;7.2;4.2;;;;;;;32.27;46.38184;942.2736;;;;
2023/08/21 14:55:48;;;;;;;5.4;3.8;;;;;;;32.23;45.07227;942.2622;;;;
2023/08/21 14:58:12;;;;;;;5.1;4;;;;;;;32.14;45.45898;942.2593;;;;
2023/08/21 15:00:39;;;;;;;7.1;3.9;;;;;;;32.1;46.55762;942.2924;;;;
2023/08/21 15:03:04;;;;;;;6.8;4.1;;;;;;;32.08;47.3457;942.2734;;;;
2023/08/21 15:05:34;;;;;;;4.5;3.7;;;;;;;31.96;46.7334;942.1677;;;;